Phoenix, AZ

6:23 AM MST on September 02, 2015 (GMT -0700)
MesoWest | | Change Station
CLOSE
Current Station
Personal Weather Station
Location: Phoenix, AZ
Elevation: 1049 ft
Nearby Weather Stations

Elev 1049 ft 33.42 °N, 112.12 °W | Updated 24 minutes ago

Mostly Cloudy
Mostly Cloudy
85 °F
Feels Like 88 °F
N
0
Wind Variable Wind from North
Gusts 0.0 mph

Today
High -- | Low -- °F
--% Chance of Precip.
Yesterday
High -- | Low -- °F
Precip. -- in
6:03 AM 6:52 PM
Waning Gibbous, 80% visible
Pressure 29.84 in
Visibility 10.0 miles
Clouds Few 11000 ft
Mostly Cloudy 14000 ft
Overcast 25000 ft
Heat Index 88 °F
Dew Point 67 °F
Humidity 55%
Rainfall in
Snow Depth Not available.
UV 0 out of 12
Pollen 5.10 out of 12
Air Quality Not available.
Flu Activity Not available.
METAR KPHX 021251Z 11005KT 10SM FEW110 BKN140 OVC250 29/20 A2990 RMK AO2 SLP104 T02890200
Pressure 29.84 in
Visibility 10.0 miles
Clouds Few 11000 ft
Mostly Cloudy 14000 ft
Overcast 25000 ft
Heat Index 88 °F
Dew Point 67 °F
Humidity 55%
Rainfall in
Snow Depth Not available.
UV 0 out of 12
Pollen 5.10 out of 12
Air Quality Not available.
Flu Activity Not available.
METAR KPHX 021251Z 11005KT 10SM FEW110 BKN140 OVC250 29/20 A2990 RMK AO2 SLP104 T02890200

10-Day Weather Forecast

×

Almanac

Astronomy

Sep. 02, 2015 Rise Set
Actual Time
Civil Twilight
Nautical Twilight
Astronomical Twilight
Moon
Length of Visible Light
Length of Day
Tomorrow will be .
, % of the Moon is Illuminated

Today's Extremes

State Highs State Lows

Community

WunderPhotos

Upload Photos

1,851,749 photos uploaded!

WunderBlogs® & News

Nearby

Air Quality

  Air Quality AQ Index Pollutant
Not available.

Snow Depth

Station Depth Elevation

Earthquake Activity

City Distance Mag. Time & Date
Minimum magnitude displayed is 2.5.

Coastal Water Temperatures

Place Temperature

Stations

Nearby Weather Stations

Station Location Temp. Windchill Dew Point Humidity Wind Precip. Elev Updated Type